sensor_id;sensor_type;location;lat;lon;timestamp;pressure;altitude;pressure_sealevel;temperature
34807;BMP280;18310;55.586;12.286;2024-03-02T00:02:12;100844.13;;;11.09
34807;BMP280;18310;55.586;12.286;2024-03-02T00:05:17;100852.84;;;11.15
34807;BMP280;18310;55.586;12.286;2024-03-02T00:08:23;100846.69;;;11.18
34807;BMP280;18310;55.586;12.286;2024-03-02T00:11:30;100814.78;;;11.03
34807;BMP280;18310;55.586;12.286;2024-03-02T00:14:33;100840.09;;;11.19
34807;BMP280;18310;55.586;12.286;2024-03-02T00:17:37;100839.50;;;11.26
34807;BMP280;18310;55.586;12.286;2024-03-02T00:20:42;100839.06;;;11.23
34807;BMP280;18310;55.586;12.286;2024-03-02T00:23:45;100838.16;;;11.19
34807;BMP280;18310;55.586;12.286;2024-03-02T00:26:50;100839.31;;;11.18
34807;BMP280;18310;55.586;12.286;2024-03-02T00:29:53;100819.94;;;11.08
34807;BMP280;18310;55.586;12.286;2024-03-02T00:32:58;100828.41;;;11.18
34807;BMP280;18310;55.586;12.286;2024-03-02T00:36:02;100809.59;;;11.13
34807;BMP280;18310;55.586;12.286;2024-03-02T00:39:06;100810.78;;;11.28
34807;BMP280;18310;55.586;12.286;2024-03-02T00:42:11;100817.53;;;11.34
34807;BMP280;18310;55.586;12.286;2024-03-02T00:45:15;100812.63;;;11.40
34807;BMP280;18310;55.586;12.286;2024-03-02T00:48:19;100814.81;;;11.34
34807;BMP280;18310;55.586;12.286;2024-03-02T00:51:24;100806.00;;;11.41
34807;BMP280;18310;55.586;12.286;2024-03-02T00:54:27;100802.94;;;11.42
34807;BMP280;18310;55.586;12.286;2024-03-02T00:57:34;100803.53;;;11.51
34807;BMP280;18310;55.586;12.286;2024-03-02T01:00:37;100809.06;;;11.55
34807;BMP280;18310;55.586;12.286;2024-03-02T01:03:41;100802.16;;;11.57
34807;BMP280;18310;55.586;12.286;2024-03-02T01:06:44;100791.31;;;11.61
34807;BMP280;18310;55.586;12.286;2024-03-02T01:09:50;100794.13;;;11.64
34807;BMP280;18310;55.586;12.286;2024-03-02T01:12:55;100797.38;;;11.70
34807;BMP280;18310;55.586;12.286;2024-03-02T01:16:00;100773.47;;;11.63
34807;BMP280;18310;55.586;12.286;2024-03-02T01:19:03;100775.28;;;11.75
34807;BMP280;18310;55.586;12.286;2024-03-02T01:22:07;100767.88;;;11.76
34807;BMP280;18310;55.586;12.286;2024-03-02T01:25:10;100771.56;;;11.83
34807;BMP280;18310;55.586;12.286;2024-03-02T01:28:15;100759.88;;;11.83
34807;BMP280;18310;55.586;12.286;2024-03-02T01:31:18;100764.97;;;11.84
34807;BMP280;18310;55.586;12.286;2024-03-02T01:34:22;100756.59;;;11.93
34807;BMP280;18310;55.586;12.286;2024-03-02T01:37:25;100752.78;;;11.97
34807;BMP280;18310;55.586;12.286;2024-03-02T01:40:29;100758.66;;;11.99
34807;BMP280;18310;55.586;12.286;2024-03-02T01:43:33;100761.41;;;11.99
34807;BMP280;18310;55.586;12.286;2024-03-02T01:46:57;100754.34;;;11.98
34807;BMP280;18310;55.586;12.286;2024-03-02T01:50:00;100756.31;;;11.98
34807;BMP280;18310;55.586;12.286;2024-03-02T01:53:04;100754.31;;;11.95
34807;BMP280;18310;55.586;12.286;2024-03-02T01:56:07;100750.69;;;11.91
34807;BMP280;18310;55.586;12.286;2024-03-02T01:59:11;100742.16;;;11.92
34807;BMP280;18310;55.586;12.286;2024-03-02T02:02:16;100741.38;;;11.92
34807;BMP280;18310;55.586;12.286;2024-03-02T02:05:20;100741.09;;;11.97
34807;BMP280;18310;55.586;12.286;2024-03-02T02:08:23;100742.69;;;11.98
34807;BMP280;18310;55.586;12.286;2024-03-02T02:11:27;100736.34;;;11.94
34807;BMP280;18310;55.586;12.286;2024-03-02T02:14:30;100743.75;;;11.93
34807;BMP280;18310;55.586;12.286;2024-03-02T02:17:35;100747.16;;;11.90
34807;BMP280;18310;55.586;12.286;2024-03-02T02:20:38;100739.34;;;11.89
34807;BMP280;18310;55.586;12.286;2024-03-02T02:23:43;100735.47;;;11.90
34807;BMP280;18310;55.586;12.286;2024-03-02T02:26:50;100734.25;;;11.87
34807;BMP280;18310;55.586;12.286;2024-03-02T02:29:54;100724.06;;;11.84
34807;BMP280;18310;55.586;12.286;2024-03-02T02:32:58;100729.97;;;11.86
34807;BMP280;18310;55.586;12.286;2024-03-02T02:36:02;100725.34;;;11.90
34807;BMP280;18310;55.586;12.286;2024-03-02T02:39:07;100722.56;;;11.87
34807;BMP280;18310;55.586;12.286;2024-03-02T02:42:13;100717.63;;;11.92
34807;BMP280;18310;55.586;12.286;2024-03-02T02:45:16;100722.00;;;11.97
34807;BMP280;18310;55.586;12.286;2024-03-02T02:48:20;100718.53;;;12.00
34807;BMP280;18310;55.586;12.286;2024-03-02T02:51:23;100717.81;;;12.03
34807;BMP280;18310;55.586;12.286;2024-03-02T02:54:29;100718.25;;;12.05
34807;BMP280;18310;55.586;12.286;2024-03-02T02:57:33;100719.16;;;12.09
34807;BMP280;18310;55.586;12.286;2024-03-02T03:00:40;100715.31;;;12.13
34807;BMP280;18310;55.586;12.286;2024-03-02T03:03:44;100707.19;;;12.17
34807;BMP280;18310;55.586;12.286;2024-03-02T03:06:47;100706.84;;;12.19
34807;BMP280;18310;55.586;12.286;2024-03-02T03:09:52;100711.16;;;12.20
34807;BMP280;18310;55.586;12.286;2024-03-02T03:12:56;100697.16;;;12.21
34807;BMP280;18310;55.586;12.286;2024-03-02T03:15:59;100699.13;;;12.24
34807;BMP280;18310;55.586;12.286;2024-03-02T03:19:03;100694.91;;;12.27
34807;BMP280;18310;55.586;12.286;2024-03-02T03:22:07;100692.69;;;12.32
34807;BMP280;18310;55.586;12.286;2024-03-02T03:25:12;100688.00;;;12.33
34807;BMP280;18310;55.586;12.286;2024-03-02T03:28:15;100682.97;;;12.35
34807;BMP280;18310;55.586;12.286;2024-03-02T03:31:18;100689.66;;;12.37
34807;BMP280;18310;55.586;12.286;2024-03-02T03:34:21;100695.19;;;12.41
34807;BMP280;18310;55.586;12.286;2024-03-02T03:37:25;100683.91;;;12.42
34807;BMP280;18310;55.586;12.286;2024-03-02T03:40:36;100690.19;;;12.46
34807;BMP280;18310;55.586;12.286;2024-03-02T03:43:39;100667.03;;;12.37
34807;BMP280;18310;55.586;12.286;2024-03-02T03:46:43;100677.34;;;12.47
34807;BMP280;18310;55.586;12.286;2024-03-02T03:49:47;100678.13;;;12.47
34807;BMP280;18310;55.586;12.286;2024-03-02T03:52:50;100684.38;;;12.48
34807;BMP280;18310;55.586;12.286;2024-03-02T03:55:55;100685.63;;;12.50
34807;BMP280;18310;55.586;12.286;2024-03-02T03:58:58;100681.38;;;12.53
34807;BMP280;18310;55.586;12.286;2024-03-02T04:02:01;100684.88;;;12.53
34807;BMP280;18310;55.586;12.286;2024-03-02T04:05:06;100681.81;;;12.55
34807;BMP280;18310;55.586;12.286;2024-03-02T04:08:11;100672.81;;;12.54
34807;BMP280;18310;55.586;12.286;2024-03-02T04:11:15;100666.56;;;12.54
34807;BMP280;18310;55.586;12.286;2024-03-02T04:14:19;100670.09;;;12.54
34807;BMP280;18310;55.586;12.286;2024-03-02T04:17:23;100669.66;;;12.52
34807;BMP280;18310;55.586;12.286;2024-03-02T04:20:49;100670.44;;;12.53
34807;BMP280;18310;55.586;12.286;2024-03-02T04:23:55;100678.63;;;12.53
34807;BMP280;18310;55.586;12.286;2024-03-02T04:27:00;100682.16;;;12.53
34807;BMP280;18310;55.586;12.286;2024-03-02T04:30:05;100682.09;;;12.50
34807;BMP280;18310;55.586;12.286;2024-03-02T04:33:09;100681.31;;;12.49
34807;BMP280;18310;55.586;12.286;2024-03-02T04:36:14;100689.41;;;12.46
34807;BMP280;18310;55.586;12.286;2024-03-02T04:39:18;100681.97;;;12.43
34807;BMP280;18310;55.586;12.286;2024-03-02T04:42:21;100687.78;;;12.41
34807;BMP280;18310;55.586;12.286;2024-03-02T04:45:24;100676.88;;;12.41
34807;BMP280;18310;55.586;12.286;2024-03-02T04:48:47;100679.16;;;12.39
34807;BMP280;18310;55.586;12.286;2024-03-02T04:51:57;100684.22;;;12.37
34807;BMP280;18310;55.586;12.286;2024-03-02T04:55:00;100681.78;;;12.32
34807;BMP280;18310;55.586;12.286;2024-03-02T04:58:21;100675.47;;;12.28
34807;BMP280;18310;55.586;12.286;2024-03-02T05:01:25;100675.81;;;12.27
34807;BMP280;18310;55.586;12.286;2024-03-02T05:04:30;100678.97;;;12.29
34807;BMP280;18310;55.586;12.286;2024-03-02T05:07:33;100683.66;;;12.28
34807;BMP280;18310;55.586;12.286;2024-03-02T05:10:37;100673.44;;;12.25
34807;BMP280;18310;55.586;12.286;2024-03-02T05:13:40;100681.63;;;12.25
34807;BMP280;18310;55.586;12.286;2024-03-02T05:16:43;100677.69;;;12.23
34807;BMP280;18310;55.586;12.286;2024-03-02T05:19:48;100684.66;;;12.20
34807;BMP280;18310;55.586;12.286;2024-03-02T05:22:52;100684.59;;;12.17
34807;BMP280;18310;55.586;12.286;2024-03-02T05:25:56;100676.31;;;12.13
34807;BMP280;18310;55.586;12.286;2024-03-02T05:28:59;100677.44;;;12.08
34807;BMP280;18310;55.586;12.286;2024-03-02T05:32:03;100678.50;;;12.04
34807;BMP280;18310;55.586;12.286;2024-03-02T05:35:08;100680.22;;;11.93
34807;BMP280;18310;55.586;12.286;2024-03-02T05:38:13;100684.88;;;11.92
34807;BMP280;18310;55.586;12.286;2024-03-02T05:41:16;100669.59;;;11.88
34807;BMP280;18310;55.586;12.286;2024-03-02T05:44:20;100672.31;;;11.88
34807;BMP280;18310;55.586;12.286;2024-03-02T05:47:24;100671.47;;;11.84
34807;BMP280;18310;55.586;12.286;2024-03-02T05:50:29;100678.63;;;11.92
34807;BMP280;18310;55.586;12.286;2024-03-02T05:53:32;100685.69;;;11.93
34807;BMP280;18310;55.586;12.286;2024-03-02T05:56:36;100691.13;;;11.93
34807;BMP280;18310;55.586;12.286;2024-03-02T05:59:39;100684.88;;;11.92
34807;BMP280;18310;55.586;12.286;2024-03-02T06:02:43;100691.94;;;11.93
34807;BMP280;18310;55.586;12.286;2024-03-02T06:05:48;100686.88;;;11.95
34807;BMP280;18310;55.586;12.286;2024-03-02T06:08:53;100692.41;;;11.99
34807;BMP280;18310;55.586;12.286;2024-03-02T06:11:56;100692.84;;;12.01
34807;BMP280;18310;55.586;12.286;2024-03-02T06:14:59;100696.00;;;12.03
34807;BMP280;18310;55.586;12.286;2024-03-02T06:18:03;100699.50;;;12.03
34807;BMP280;18310;55.586;12.286;2024-03-02T06:21:10;100693.81;;;12.08
34807;BMP280;18310;55.586;12.286;2024-03-02T06:24:13;100700.44;;;12.11
34807;BMP280;18310;55.586;12.286;2024-03-02T06:27:16;100700.44;;;12.11
34807;BMP280;18310;55.586;12.286;2024-03-02T06:30:20;100705.91;;;12.11
34807;BMP280;18310;55.586;12.286;2024-03-02T06:33:24;100702.78;;;12.09
34807;BMP280;18310;55.586;12.286;2024-03-02T06:36:29;100704.72;;;12.08
34807;BMP280;18310;55.586;12.286;2024-03-02T06:39:33;100702.78;;;12.09
34807;BMP280;18310;55.586;12.286;2024-03-02T06:42:37;100698.81;;;12.06
34807;BMP280;18310;55.586;12.286;2024-03-02T06:45:41;100702.03;;;12.12
34807;BMP280;18310;55.586;12.286;2024-03-02T06:48:44;100704.06;;;12.15
34807;BMP280;18310;55.586;12.286;2024-03-02T06:51:50;100699.00;;;12.17
34807;BMP280;18310;55.586;12.286;2024-03-02T06:54:53;100699.09;;;12.21
34807;BMP280;18310;55.586;12.286;2024-03-02T06:57:56;100707.69;;;12.23
34807;BMP280;18310;55.586;12.286;2024-03-02T07:01:00;100708.50;;;12.23
34807;BMP280;18310;55.586;12.286;2024-03-02T07:04:04;100711.28;;;12.27
34807;BMP280;18310;55.586;12.286;2024-03-02T07:07:10;100709.78;;;12.29
34807;BMP280;18310;55.586;12.286;2024-03-02T07:10:13;100710.16;;;12.28
34807;BMP280;18310;55.586;12.286;2024-03-02T07:13:16;100714.81;;;12.27
34807;BMP280;18310;55.586;12.286;2024-03-02T07:16:19;100711.72;;;12.29
34807;BMP280;18310;55.586;12.286;2024-03-02T07:19:30;100718.78;;;12.30
34807;BMP280;18310;55.586;12.286;2024-03-02T07:22:35;100718.41;;;12.31
34807;BMP280;18310;55.586;12.286;2024-03-02T07:25:44;100703.03;;;12.23
34807;BMP280;18310;55.586;12.286;2024-03-02T07:28:50;100707.31;;;12.24
34807;BMP280;18310;55.586;12.286;2024-03-02T07:31:54;100724.88;;;12.23
34807;BMP280;18310;55.586;12.286;2024-03-02T07:34:57;100723.66;;;12.21
34807;BMP280;18310;55.586;12.286;2024-03-02T07:38:02;100726.00;;;12.22
34807;BMP280;18310;55.586;12.286;2024-03-02T07:41:07;100724.44;;;12.21
34807;BMP280;18310;55.586;12.286;2024-03-02T07:44:10;100726.38;;;12.21
34807;BMP280;18310;55.586;12.286;2024-03-02T07:47:16;100710.66;;;12.14
34807;BMP280;18310;55.586;12.286;2024-03-02T07:50:20;100727.94;;;12.22
34807;BMP280;18310;55.586;12.286;2024-03-02T07:53:25;100732.63;;;12.21
34807;BMP280;18310;55.586;12.286;2024-03-02T07:56:28;100734.56;;;12.21
34807;BMP280;18310;55.586;12.286;2024-03-02T07:59:31;100723.56;;;12.17
34807;BMP280;18310;55.586;12.286;2024-03-02T08:02:35;100732.91;;;12.16
34807;BMP280;18310;55.586;12.286;2024-03-02T08:05:39;100732.47;;;12.14
34807;BMP280;18310;55.586;12.286;2024-03-02T08:08:44;100735.38;;;12.21
34807;BMP280;18310;55.586;12.286;2024-03-02T08:11:47;100745.53;;;12.24
34807;BMP280;18310;55.586;12.286;2024-03-02T08:14:51;100738.50;;;12.23
34807;BMP280;18310;55.586;12.286;2024-03-02T08:17:54;100749.03;;;12.25
34807;BMP280;18310;55.586;12.286;2024-03-02T08:20:58;100749.50;;;12.27
34807;BMP280;18310;55.586;12.286;2024-03-02T08:24:04;100748.69;;;12.26
34807;BMP280;18310;55.586;12.286;2024-03-02T08:27:08;100745.53;;;12.24
34807;BMP280;18310;55.586;12.286;2024-03-02T08:30:13;100749.78;;;12.22
34807;BMP280;18310;55.586;12.286;2024-03-02T08:33:16;100762.28;;;12.23
34807;BMP280;18310;55.586;12.286;2024-03-02T08:36:20;100761.09;;;12.24
34807;BMP280;18310;55.586;12.286;2024-03-02T08:41:21;100765.56;;;12.32
34807;BMP280;18310;55.586;12.286;2024-03-02T08:44:24;100762.13;;;12.35
34807;BMP280;18310;55.586;12.286;2024-03-02T08:47:27;100767.66;;;12.38
34807;BMP280;18310;55.586;12.286;2024-03-02T08:50:31;100767.75;;;12.42
34807;BMP280;18310;55.586;12.286;2024-03-02T08:53:34;100757.66;;;12.46
34807;BMP280;18310;55.586;12.286;2024-03-02T08:56:39;100760.38;;;12.46
34807;BMP280;18310;55.586;12.286;2024-03-02T08:59:43;100759.22;;;12.47
34807;BMP280;18310;55.586;12.286;2024-03-02T09:02:47;100760.03;;;12.47
34807;BMP280;18310;55.586;12.286;2024-03-02T09:05:50;100756.94;;;12.49
34807;BMP280;18310;55.586;12.286;2024-03-02T09:08:53;100757.75;;;12.49
34807;BMP280;18310;55.586;12.286;2024-03-02T09:11:59;100749.97;;;12.51
34807;BMP280;18310;55.586;12.286;2024-03-02T09:15:03;100757.00;;;12.52
34807;BMP280;18310;55.586;12.286;2024-03-02T09:18:07;100755.34;;;12.48
34807;BMP280;18310;55.586;12.286;2024-03-02T09:21:11;100763.91;;;12.46
34807;BMP280;18310;55.586;12.286;2024-03-02T09:24:14;100757.53;;;12.39
34807;BMP280;18310;55.586;12.286;2024-03-02T09:27:21;100761.34;;;12.34
34807;BMP280;18310;55.586;12.286;2024-03-02T09:30:43;100758.47;;;12.27
34807;BMP280;18310;55.586;12.286;2024-03-02T09:33:47;100761.47;;;12.22
34807;BMP280;18310;55.586;12.286;2024-03-02T09:36:51;100760.22;;;12.16
34807;BMP280;18310;55.586;12.286;2024-03-02T09:39:55;100767.16;;;12.13
34807;BMP280;18310;55.586;12.286;2024-03-02T09:42:58;100763.19;;;12.11
34807;BMP280;18310;55.586;12.286;2024-03-02T09:46:04;100762.00;;;12.08
34807;BMP280;18310;55.586;12.286;2024-03-02T09:49:08;100755.75;;;12.08
34807;BMP280;18310;55.586;12.286;2024-03-02T09:52:13;100759.28;;;12.08
34807;BMP280;18310;55.586;12.286;2024-03-02T09:55:17;100766.28;;;12.09
34807;BMP280;18310;55.586;12.286;2024-03-02T09:58:21;100766.66;;;12.08
34807;BMP280;18310;55.586;12.286;2024-03-02T10:01:26;100773.63;;;12.05
34807;BMP280;18310;55.586;12.286;2024-03-02T10:04:30;100768.09;;;12.02
34807;BMP280;18310;55.586;12.286;2024-03-02T10:07:34;100773.16;;;12.03
34807;BMP280;18310;55.586;12.286;2024-03-02T10:10:40;100767.22;;;11.98
34807;BMP280;18310;55.586;12.286;2024-03-02T10:13:45;100770.69;;;11.95
34807;BMP280;18310;55.586;12.286;2024-03-02T10:16:50;100764.31;;;11.91
34807;BMP280;18310;55.586;12.286;2024-03-02T10:19:53;100770.13;;;11.89
34807;BMP280;18310;55.586;12.286;2024-03-02T10:23:09;100772.03;;;11.85
34807;BMP280;18310;55.586;12.286;2024-03-02T10:26:16;100769.72;;;11.87
34807;BMP280;18310;55.586;12.286;2024-03-02T10:29:20;100771.22;;;11.85
34807;BMP280;18310;55.586;12.286;2024-03-02T10:32:26;100781.78;;;11.86
34807;BMP280;18310;55.586;12.286;2024-03-02T10:35:29;100778.25;;;11.86
34807;BMP280;18310;55.586;12.286;2024-03-02T10:38:34;100782.19;;;11.88
34807;BMP280;18310;55.586;12.286;2024-03-02T10:41:38;100772.84;;;11.89
34807;BMP280;18310;55.586;12.286;2024-03-02T10:44:42;100781.59;;;11.95
34807;BMP280;18310;55.586;12.286;2024-03-02T10:47:47;100774.44;;;11.90
34807;BMP280;18310;55.586;12.286;2024-03-02T10:50:51;100768.78;;;11.99
34807;BMP280;18310;55.586;12.286;2024-03-02T10:53:55;100771.88;;;11.97
34807;BMP280;18310;55.586;12.286;2024-03-02T10:56:59;100772.38;;;12.03
34807;BMP280;18310;55.586;12.286;2024-03-02T11:00:03;100766.50;;;12.01
34807;BMP280;18310;55.586;12.286;2024-03-02T11:03:10;100766.22;;;12.06
34807;BMP280;18310;55.586;12.286;2024-03-02T11:06:15;100766.28;;;12.09
34807;BMP280;18310;55.586;12.286;2024-03-02T11:09:23;100777.72;;;12.15
34807;BMP280;18310;55.586;12.286;2024-03-02T11:12:29;100775.13;;;12.22
34807;BMP280;18310;55.586;12.286;2024-03-02T11:15:35;100775.78;;;12.35
34807;BMP280;18310;55.586;12.286;2024-03-02T11:18:41;100781.06;;;12.47
34807;BMP280;18310;55.586;12.286;2024-03-02T11:21:45;100781.22;;;12.54
34807;BMP280;18310;55.586;12.286;2024-03-02T11:24:49;100782.72;;;12.51
34807;BMP280;18310;55.586;12.286;2024-03-02T11:28:00;100791.03;;;12.58
34807;BMP280;18310;55.586;12.286;2024-03-02T11:31:03;100788.41;;;12.62
34807;BMP280;18310;55.586;12.286;2024-03-02T11:34:28;100785.38;;;12.67
34807;BMP280;18310;55.586;12.286;2024-03-02T11:37:32;100783.50;;;12.71
34807;BMP280;18310;55.586;12.286;2024-03-02T11:40:39;100792.91;;;12.74
34807;BMP280;18310;55.586;12.286;2024-03-02T11:43:43;100783.06;;;12.69
34807;BMP280;18310;55.586;12.286;2024-03-02T11:46:52;100790.09;;;12.70
34807;BMP280;18310;55.586;12.286;2024-03-02T11:49:58;100791.94;;;12.63
34807;BMP280;18310;55.586;12.286;2024-03-02T11:53:02;100796.50;;;12.58
34807;BMP280;18310;55.586;12.286;2024-03-02T11:56:11;100788.97;;;12.52
34807;BMP280;18310;55.586;12.286;2024-03-02T11:59:15;100787.31;;;12.47
34807;BMP280;18310;55.586;12.286;2024-03-02T12:02:20;100785.59;;;12.39
34807;BMP280;18310;55.586;12.286;2024-03-02T12:05:26;100789.56;;;12.42
34807;BMP280;18310;55.586;12.286;2024-03-02T12:08:30;100789.47;;;12.38
34807;BMP280;18310;55.586;12.286;2024-03-02T12:11:34;100792.88;;;12.32
34807;BMP280;18310;55.586;12.286;2024-03-02T12:14:38;100785.41;;;12.29
34807;BMP280;18310;55.586;12.286;2024-03-02T12:17:41;100794.88;;;12.35
34807;BMP280;18310;55.586;12.286;2024-03-02T12:20:48;100797.25;;;12.36
34807;BMP280;18310;55.586;12.286;2024-03-02T12:23:52;100800.06;;;12.40
34807;BMP280;18310;55.586;12.286;2024-03-02T12:26:56;100795.31;;;12.37
34807;BMP280;18310;55.586;12.286;2024-03-02T12:30:00;100809.88;;;12.44
34807;BMP280;18310;55.586;12.286;2024-03-02T12:33:03;100807.13;;;12.44
34807;BMP280;18310;55.586;12.286;2024-03-02T12:36:10;100800.16;;;12.43
34807;BMP280;18310;55.586;12.286;2024-03-02T12:39:14;100797.75;;;12.42
34807;BMP280;18310;55.586;12.286;2024-03-02T12:42:18;100796.53;;;12.39
34807;BMP280;18310;55.586;12.286;2024-03-02T12:45:21;100790.28;;;12.39
34807;BMP280;18310;55.586;12.286;2024-03-02T12:48:27;100802.88;;;12.43
34807;BMP280;18310;55.586;12.286;2024-03-02T12:51:32;100796.66;;;12.46
34807;BMP280;18310;55.586;12.286;2024-03-02T12:54:36;100793.56;;;12.48
34807;BMP280;18310;55.586;12.286;2024-03-02T12:58:02;100805.44;;;12.55
34807;BMP280;18310;55.586;12.286;2024-03-02T13:01:06;100804.00;;;12.62
34807;BMP280;18310;55.586;12.286;2024-03-02T13:04:11;100797.84;;;12.68
34807;BMP280;18310;55.586;12.286;2024-03-02T13:07:14;100780.88;;;12.55
34807;BMP280;18310;55.586;12.286;2024-03-02T13:10:18;100809.84;;;12.83
34807;BMP280;18310;55.586;12.286;2024-03-02T13:13:23;100799.28;;;12.81
34807;BMP280;18310;55.586;12.286;2024-03-02T13:16:27;100800.91;;;12.86
34807;BMP280;18310;55.586;12.286;2024-03-02T13:19:50;100804.84;;;12.85
34807;BMP280;18310;55.586;12.286;2024-03-02T13:22:53;100797.78;;;12.84
34807;BMP280;18310;55.586;12.286;2024-03-02T13:25:57;100802.00;;;12.81
34807;BMP280;18310;55.586;12.286;2024-03-02T13:29:02;100806.13;;;12.72
34807;BMP280;18310;55.586;12.286;2024-03-02T13:32:06;100814.75;;;12.74
34807;BMP280;18310;55.586;12.286;2024-03-02T13:35:09;100818.56;;;12.69
34807;BMP280;18310;55.586;12.286;2024-03-02T13:38:13;100820.81;;;12.64
34807;BMP280;18310;55.586;12.286;2024-03-02T13:41:17;100822.31;;;12.61
34807;BMP280;18310;55.586;12.286;2024-03-02T13:44:22;100822.25;;;12.57
34807;BMP280;18310;55.586;12.286;2024-03-02T13:47:25;100827.63;;;12.54
34807;BMP280;18310;55.586;12.286;2024-03-02T13:50:29;100820.53;;;12.49
34807;BMP280;18310;55.586;12.286;2024-03-02T13:53:32;100811.53;;;12.49
34807;BMP280;18310;55.586;12.286;2024-03-02T13:56:37;100817.00;;;12.49
34807;BMP280;18310;55.586;12.286;2024-03-02T13:59:45;100824.75;;;12.47
34807;BMP280;18310;55.586;12.286;2024-03-02T14:02:48;100821.53;;;12.41
34807;BMP280;18310;55.586;12.286;2024-03-02T14:05:53;100829.28;;;12.39
34807;BMP280;18310;55.586;12.286;2024-03-02T14:08:57;100819.38;;;12.31
34807;BMP280;18310;55.586;12.286;2024-03-02T14:12:02;100826.00;;;12.30
34807;BMP280;18310;55.586;12.286;2024-03-02T14:15:07;100826.25;;;12.25
34807;BMP280;18310;55.586;12.286;2024-03-02T14:18:12;100828.03;;;12.18
34807;BMP280;18310;55.586;12.286;2024-03-02T14:21:15;100827.47;;;12.08
34807;BMP280;18310;55.586;12.286;2024-03-02T14:24:19;100817.94;;;12.02
34807;BMP280;18310;55.586;12.286;2024-03-02T14:27:26;100818.59;;;11.96
34807;BMP280;18310;55.586;12.286;2024-03-02T14:30:51;100828.72;;;11.95
34807;BMP280;18310;55.586;12.286;2024-03-02T14:33:55;100825.28;;;11.98
34807;BMP280;18310;55.586;12.286;2024-03-02T14:36:58;100832.31;;;11.99
34807;BMP280;18310;55.586;12.286;2024-03-02T14:40:02;100828.28;;;12.09
34807;BMP280;18310;55.586;12.286;2024-03-02T14:43:08;100829.56;;;12.15
34807;BMP280;18310;55.586;12.286;2024-03-02T14:46:13;100824.63;;;12.21
34807;BMP280;18310;55.586;12.286;2024-03-02T14:49:17;100835.22;;;12.26
34807;BMP280;18310;55.586;12.286;2024-03-02T14:52:20;100840.81;;;12.33
34807;BMP280;18310;55.586;12.286;2024-03-02T14:55:24;100834.66;;;12.36
34807;BMP280;18310;55.586;12.286;2024-03-02T14:58:27;100831.66;;;12.41
34807;BMP280;18310;55.586;12.286;2024-03-02T15:01:32;100841.78;;;12.40
34807;BMP280;18310;55.586;12.286;2024-03-02T15:04:35;100836.94;;;12.34
34807;BMP280;18310;55.586;12.286;2024-03-02T15:07:39;100827.84;;;12.26
34807;BMP280;18310;55.586;12.286;2024-03-02T15:10:42;100834.75;;;12.20
34807;BMP280;18310;55.586;12.286;2024-03-02T15:13:47;100833.09;;;12.16
34807;BMP280;18310;55.586;12.286;2024-03-02T15:16:52;100827.47;;;12.08
34807;BMP280;18310;55.586;12.286;2024-03-02T15:19:55;100826.13;;;12.02
34807;BMP280;18310;55.586;12.286;2024-03-02T15:22:58;100831.53;;;11.99
34807;BMP280;18310;55.586;12.286;2024-03-02T15:26:02;100825.72;;;12.00
34807;BMP280;18310;55.586;12.286;2024-03-02T15:29:05;100828.53;;;12.04
34807;BMP280;18310;55.586;12.286;2024-03-02T15:32:11;100830.22;;;12.08
34807;BMP280;18310;55.586;12.286;2024-03-02T15:35:14;100829.22;;;12.17
34807;BMP280;18310;55.586;12.286;2024-03-02T15:38:18;100826.56;;;12.20
34807;BMP280;18310;55.586;12.286;2024-03-02T15:41:34;100824.66;;;12.24
34807;BMP280;18310;55.586;12.286;2024-03-02T15:44:37;100832.44;;;12.22
34807;BMP280;18310;55.586;12.286;2024-03-02T15:47:45;100834.28;;;12.18
34807;BMP280;18310;55.586;12.286;2024-03-02T15:50:49;100827.38;;;12.05
34807;BMP280;18310;55.586;12.286;2024-03-02T15:53:52;100823.41;;;12.02
34807;BMP280;18310;55.586;12.286;2024-03-02T15:56:56;100845.69;;;12.04
34807;BMP280;18310;55.586;12.286;2024-03-02T15:59:59;100843.31;;;12.03
34807;BMP280;18310;55.586;12.286;2024-03-02T16:03:05;100847.09;;;11.98
34807;BMP280;18310;55.586;12.286;2024-03-02T16:06:08;100843.16;;;11.96
34807;BMP280;18310;55.586;12.286;2024-03-02T16:09:12;100833.06;;;11.81
34807;BMP280;18310;55.586;12.286;2024-03-02T16:12:16;100857.25;;;11.98
34807;BMP280;18310;55.586;12.286;2024-03-02T16:15:19;100865.41;;;11.98
34807;BMP280;18310;55.586;12.286;2024-03-02T16:18:24;100868.16;;;11.98
34807;BMP280;18310;55.586;12.286;2024-03-02T16:21:28;100875.97;;;11.99
34807;BMP280;18310;55.586;12.286;2024-03-02T16:24:31;100874.03;;;12.00
34807;BMP280;18310;55.586;12.286;2024-03-02T16:27:35;100879.81;;;11.98
34807;BMP280;18310;55.586;12.286;2024-03-02T16:30:38;100877.81;;;11.95
34807;BMP280;18310;55.586;12.286;2024-03-02T16:33:43;100877.75;;;11.92
34807;BMP280;18310;55.586;12.286;2024-03-02T16:36:47;100886.59;;;11.89
34807;BMP280;18310;55.586;12.286;2024-03-02T16:39:51;100892.06;;;11.89
34807;BMP280;18310;55.586;12.286;2024-03-02T16:42:55;100877.94;;;11.83
34807;BMP280;18310;55.586;12.286;2024-03-02T16:45:58;100886.44;;;11.82
34807;BMP280;18310;55.586;12.286;2024-03-02T16:49:03;100889.09;;;11.78
34807;BMP280;18310;55.586;12.286;2024-03-02T16:52:07;100902.03;;;11.81
34807;BMP280;18310;55.586;12.286;2024-03-02T16:55:11;100898.94;;;11.83
34807;BMP280;18310;55.586;12.286;2024-03-02T16:58:15;100896.22;;;11.83
34807;BMP280;18310;55.586;12.286;2024-03-02T17:01:20;100895.88;;;11.84
34807;BMP280;18310;55.586;12.286;2024-03-02T17:04:25;100900.88;;;11.82
34807;BMP280;18310;55.586;12.286;2024-03-02T17:07:30;100906.25;;;11.79
34807;BMP280;18310;55.586;12.286;2024-03-02T17:10:34;100915.56;;;11.78
34807;BMP280;18310;55.586;12.286;2024-03-02T17:13:37;100918.38;;;11.81
34807;BMP280;18310;55.586;12.286;2024-03-02T17:16:41;100920.75;;;11.83